Time,TemperatureF,DewpointF,PressureIn,WindDirection,WindDirectionDegrees,WindSpeedMPH,WindSpeedGustMPH,Humidity,HourlyPrecipIn,Conditions,Clouds,dailyrainin,SoftwareType,DateUTC
2013-08-22 00:00:00,71.5,60.8,29.96,West,274,0.0,0.0,69,0.00,,,-99.99,VWS V12.06,2013-08-22 04:00:00,
2013-08-22 00:15:00,71.5,60.8,29.96,West,274,0.0,0.0,69,0.00,,,-99.99,VWS V12.06,2013-08-22 04:15:00,
2013-08-22 00:30:00,71.5,60.8,29.96,West,274,0.0,0.0,69,0.00,,,-99.99,VWS V12.06,2013-08-22 04:30:00,
2013-08-22 00:45:00,71.3,60.6,29.96,West,274,0.0,0.0,69,0.00,,,-99.99,VWS V12.06,2013-08-22 04:45:00,
2013-08-22 01:00:00,71.1,60.4,29.96,West,274,0.0,0.0,69,0.00,,,-99.99,VWS V12.06,2013-08-22 05:00:00,
2013-08-22 01:15:00,70.8,60.5,29.97,West,274,0.0,0.0,70,0.00,,,-99.99,VWS V12.06,2013-08-22 05:15:00,
2013-08-22 01:30:00,70.4,60.6,29.97,West,274,0.0,0.0,71,0.00,,,-99.99,VWS V12.06,2013-08-22 05:30:00,
2013-08-22 01:45:00,70.4,61.0,29.97,West,274,0.0,0.0,72,0.00,,,-99.99,VWS V12.06,2013-08-22 05:45:00,
2013-08-22 02:00:00,70.3,61.2,29.97,West,274,0.0,0.0,73,0.00,,,-99.99,VWS V12.06,2013-08-22 06:00:00,
2013-08-22 02:15:00,70.6,61.1,29.97,West,274,0.0,0.0,72,0.00,,,-99.99,VWS V12.06,2013-08-22 06:15:00,
2013-08-22 02:30:00,70.8,61.3,29.97,West,268,0.0,0.0,72,0.00,,,-99.99,VWS V12.06,2013-08-22 06:30:00,
2013-08-22 02:45:00,70.6,61.1,29.97,NW,323,0.0,0.0,72,0.00,,,-99.99,VWS V12.06,2013-08-22 06:45:00,
2013-08-22 03:00:00,70.4,61.7,29.97,NW,322,0.0,0.0,74,0.00,,,-99.99,VWS V12.06,2013-08-22 07:00:00,
2013-08-22 03:15:00,70.1,61.4,29.96,WNW,292,0.0,0.0,74,0.00,,,-99.99,VWS V12.06,2013-08-22 07:15:00,
2013-08-22 03:30:00,69.6,61.7,29.96,WNW,292,0.0,0.0,76,0.00,,,-99.99,VWS V12.06,2013-08-22 07:30:00,
2013-08-22 03:45:00,69.3,61.8,29.96,WNW,292,0.0,0.0,77,0.00,,,-99.99,VWS V12.06,2013-08-22 07:45:00,
2013-08-22 04:00:00,68.8,61.7,29.96,WNW,292,0.0,0.0,78,0.00,,,-99.99,VWS V12.06,2013-08-22 08:00:00,
2013-08-22 04:15:00,68.3,61.9,29.96,WNW,292,0.0,0.0,80,0.00,,,-99.99,VWS V12.06,2013-08-22 08:15:00,
2013-08-22 04:30:00,67.6,61.6,29.95,WNW,292,0.0,0.0,81,0.00,,,-99.99,VWS V12.06,2013-08-22 08:30:00,
2013-08-22 04:45:00,67.1,61.4,29.95,WNW,292,0.0,0.0,82,0.00,,,-99.99,VWS V12.06,2013-08-22 08:45:00,
2013-08-22 05:00:00,66.6,61.6,29.95,WNW,292,0.0,0.0,84,0.00,,,-99.99,VWS V12.06,2013-08-22 09:00:00,
2013-08-22 05:15:00,66.3,61.3,29.94,WNW,292,0.0,0.0,84,0.00,,,-99.99,VWS V12.06,2013-08-22 09:15:00,
2013-08-22 05:30:00,66.0,61.4,29.94,WNW,292,0.0,0.0,85,0.00,,,-99.99,VWS V12.06,2013-08-22 09:30:00,
2013-08-22 05:45:00,65.6,61.3,29.94,WNW,292,0.0,0.0,86,0.00,,,-99.99,VWS V12.06,2013-08-22 09:45:00,
2013-08-22 06:00:00,65.2,61.2,29.94,WNW,292,0.0,0.0,87,0.00,,,-99.99,VWS V12.06,2013-08-22 10:00:00,
2013-08-22 06:15:00,64.8,61.2,29.93,WNW,292,0.0,0.0,88,0.00,,,-99.99,VWS V12.06,2013-08-22 10:15:00,
2013-08-22 06:30:00,65.0,61.4,29.93,WNW,292,0.0,0.0,88,0.00,,,-99.99,VWS V12.06,2013-08-22 10:30:00,
2013-08-22 06:45:00,65.3,61.7,29.93,WNW,292,0.0,0.0,88,0.00,,,-99.99,VWS V12.06,2013-08-22 10:45:00,
2013-08-22 08:30:00,73.3,64.5,29.93,WNW,292,0.0,0.0,74,0.00,,,-99.99,VWS V12.06,2013-08-22 12:30:00,
2013-08-22 08:45:00,73.7,64.9,29.92,WNW,292,0.0,0.0,74,0.00,,,-99.99,VWS V12.06,2013-08-22 12:45:00,
2013-08-22 09:00:00,74.4,65.2,29.92,WNW,292,0.0,0.0,73,0.00,,,-99.99,VWS V12.06,2013-08-22 13:00:00,
2013-08-22 09:15:00,75.1,64.2,29.92,WNW,292,0.0,0.0,69,0.00,,,-99.99,VWS V12.06,2013-08-22 13:15:00,
2013-08-22 09:30:00,76.0,64.7,29.92,WNW,292,0.0,1.0,68,0.00,,,-99.99,VWS V12.06,2013-08-22 13:30:00,
2013-08-22 09:45:00,77.2,64.5,29.92,WNW,291,0.0,1.0,65,0.00,,,-99.99,VWS V12.06,2013-08-22 13:45:00,
2013-08-22 10:00:00,77.7,64.6,29.92,North,0,0.0,1.0,64,0.00,,,-99.99,VWS V12.06,2013-08-22 14:00:00,
2013-08-22 10:15:00,78.6,64.5,29.92,SSE,165,0.0,0.0,62,0.00,,,-99.99,VWS V12.06,2013-08-22 14:15:00,
2013-08-22 10:30:00,79.9,65.7,29.92,NNW,335,0.0,0.0,62,0.00,,,-99.99,VWS V12.06,2013-08-22 14:30:00,
2013-08-22 10:45:00,80.5,66.3,29.92,WNW,284,0.0,1.0,62,0.00,,,-99.99,VWS V12.06,2013-08-22 14:45:00,
2013-08-22 11:00:00,80.5,64.9,29.92,NNE,13,0.0,2.0,59,0.00,,,-99.99,VWS V12.06,2013-08-22 15:00:00,
2013-08-22 11:15:00,80.9,65.2,29.91,NNW,342,0.0,3.0,59,0.00,,,-99.99,VWS V12.06,2013-08-22 15:15:00,
2013-08-22 11:30:00,81.2,65.5,29.91,West,274,0.0,2.0,59,0.00,,,-99.99,VWS V12.06,2013-08-22 15:30:00,
2013-08-22 11:45:00,81.8,65.6,29.90,North,353,0.0,2.0,58,0.00,,,-99.99,VWS V12.06,2013-08-22 15:45:00,
2013-08-22 12:00:00,82.0,66.8,29.90,SW,215,0.0,1.0,60,0.00,,,-99.99,VWS V12.06,2013-08-22 16:00:00,
2013-08-22 12:15:00,82.2,66.0,29.90,North,4,0.0,6.0,58,0.00,,,-99.99,VWS V12.06,2013-08-22 16:15:00,
2013-08-22 12:30:00,81.6,66.9,29.90,SSE,168,0.0,1.0,61,0.00,,,-99.99,VWS V12.06,2013-08-22 16:30:00,
2013-08-22 12:45:00,81.6,66.4,29.89,NW,311,0.0,2.0,60,0.00,,,-99.99,VWS V12.06,2013-08-22 16:45:00,
2013-08-22 13:00:00,81.1,66.4,29.88,North,350,0.0,1.0,61,0.00,,,-99.99,VWS V12.06,2013-08-22 17:00:00,
2013-08-22 13:15:00,81.1,67.3,29.88,NNE,31,0.0,2.0,63,0.00,,,-99.99,VWS V12.06,2013-08-22 17:15:00,
2013-08-22 13:30:00,80.3,67.0,29.87,North,8,5.0,5.0,64,0.00,,,-99.99,VWS V12.06,2013-08-22 17:30:00,
2013-08-22 13:45:00,80.3,67.9,29.87,SW,229,0.0,2.0,66,0.00,,,-99.99,VWS V12.06,2013-08-22 17:45:00,
2013-08-22 14:00:00,80.5,69.0,29.87,SSW,196,0.0,1.0,68,0.00,,,-99.99,VWS V12.06,2013-08-22 18:00:00,
2013-08-22 14:15:00,79.9,68.8,29.87,South,179,0.0,4.0,69,0.00,,,-99.99,VWS V12.06,2013-08-22 18:15:00,
2013-08-22 14:30:00,81.1,68.2,29.86,SW,236,1.0,1.0,65,0.00,,,-99.99,VWS V12.06,2013-08-22 18:30:00,
2013-08-22 14:45:00,80.9,68.0,29.85,East,95,0.0,2.0,65,0.00,,,-99.99,VWS V12.06,2013-08-22 18:45:00,
2013-08-22 15:00:00,79.9,68.8,29.84,North,8,0.0,0.0,69,0.00,,,-99.99,VWS V12.06,2013-08-22 19:00:00,
2013-08-22 15:15:00,79.4,69.2,29.82,North,0,2.0,2.0,71,0.00,,,-99.99,VWS V12.06,2013-08-22 19:15:00,
2013-08-22 15:30:00,78.6,69.2,29.82,NE,44,0.0,0.0,73,0.00,,,-99.99,VWS V12.06,2013-08-22 19:30:00,
2013-08-22 15:45:00,78.5,68.7,29.82,NE,44,1.0,1.0,72,0.00,,,-99.99,VWS V12.06,2013-08-22 19:45:00,
2013-08-22 16:00:00,77.9,68.6,29.82,ENE,71,0.0,3.0,73,0.00,,,-99.99,VWS V12.06,2013-08-22 20:00:00,
2013-08-22 16:15:00,77.6,68.7,29.81,North,354,0.0,1.0,74,0.00,,,-99.99,VWS V12.06,2013-08-22 20:15:00,
2013-08-22 16:30:00,77.7,68.4,29.81,North,11,0.0,1.0,73,0.00,,,-99.99,VWS V12.06,2013-08-22 20:30:00,
2013-08-22 16:45:00,78.6,68.8,29.81,NNE,13,0.0,1.0,72,0.00,,,-99.99,VWS V12.06,2013-08-22 20:45:00,
2013-08-22 17:00:00,78.3,68.5,29.80,NNE,16,1.0,3.0,72,0.00,,,-99.99,VWS V12.06,2013-08-22 21:00:00,
2013-08-22 17:15:00,78.1,68.8,29.80,NW,316,0.0,1.0,73,0.00,,,-99.99,VWS V12.06,2013-08-22 21:15:00,
2013-08-22 17:30:00,78.1,68.3,29.80,NW,316,0.0,0.0,72,0.00,,,-99.99,VWS V12.06,2013-08-22 21:30:00,
2013-08-22 17:45:00,77.6,67.9,29.79,SSW,200,0.0,0.0,72,0.00,,,-99.99,VWS V12.06,2013-08-22 21:45:00,
2013-08-22 18:00:00,77.4,67.7,29.79,SE,143,0.0,1.0,72,0.00,,,-99.99,VWS V12.06,2013-08-22 22:00:00,
2013-08-22 18:15:00,77.0,66.9,29.79,SW,230,0.0,0.0,71,0.00,,,-99.99,VWS V12.06,2013-08-22 22:15:00,
2013-08-22 18:30:00,76.7,66.6,29.79,SE,130,1.0,1.0,71,0.00,,,-99.99,VWS V12.06,2013-08-22 22:30:00,
2013-08-22 18:45:00,76.3,66.6,29.78,SSW,213,0.0,0.0,72,0.00,,,-99.99,VWS V12.06,2013-08-22 22:45:00,
2013-08-22 19:00:00,75.8,66.5,29.78,South,182,0.0,0.0,73,0.00,,,-99.99,VWS V12.06,2013-08-22 23:00:00,
2013-08-22 19:15:00,75.3,66.8,29.78,South,184,0.0,1.0,75,0.00,,,-99.99,VWS V12.06,2013-08-22 23:15:00,
2013-08-22 19:30:00,74.6,66.5,29.78,SE,137,0.0,0.0,76,0.00,,,-99.99,VWS V12.06,2013-08-22 23:30:00,
2013-08-22 19:45:00,74.0,66.7,29.78,ENE,76,0.0,1.0,78,0.00,,,-99.99,VWS V12.06,2013-08-22 23:45:00,
2013-08-22 20:00:00,73.5,66.6,29.78,SW,234,0.0,0.0,79,0.00,,,-99.99,VWS V12.06,2013-08-23 00:00:00,
2013-08-22 20:15:00,73.2,66.7,29.79,SW,234,0.0,0.0,80,0.00,,,-99.99,VWS V12.06,2013-08-23 00:15:00,
2013-08-22 20:30:00,72.7,66.9,29.78,SW,234,0.0,0.0,82,0.00,,,-99.99,VWS V12.06,2013-08-23 00:30:00,
2013-08-22 20:45:00,72.3,66.8,29.78,SW,234,0.0,0.0,83,0.00,,,-99.99,VWS V12.06,2013-08-23 00:45:00,
2013-08-22 21:00:00,71.8,67.1,29.78,SW,234,0.0,0.0,85,0.00,,,-99.99,VWS V12.06,2013-08-23 01:00:00,
2013-08-22 21:15:00,71.6,67.2,29.78,SSW,206,0.0,0.0,86,0.00,,,-99.99,VWS V12.06,2013-08-23 01:15:00,
2013-08-22 21:30:00,71.5,67.8,29.78,ESE,110,0.0,0.0,88,0.00,,,-99.99,VWS V12.06,2013-08-23 01:30:00,
2013-08-22 22:00:00,71.1,67.7,29.78,ESE,110,0.0,0.0,89,0.00,,,-99.99,VWS V12.06,2013-08-23 02:00:00,
2013-08-22 22:15:00,70.9,67.8,29.78,ENE,65,0.0,0.0,90,0.00,,,-99.99,VWS V12.06,2013-08-23 02:15:00,
2013-08-22 22:30:00,70.8,67.7,29.77,NE,54,0.0,0.0,90,0.00,,,-99.99,VWS V12.06,2013-08-23 02:30:00,
2013-08-22 22:45:00,70.6,67.8,29.77,NE,54,0.0,0.0,91,0.00,,,-99.99,VWS V12.06,2013-08-23 02:45:00,
2013-08-22 23:00:00,70.6,67.8,29.76,NE,47,0.0,0.0,91,0.00,,,-99.99,VWS V12.06,2013-08-23 03:00:00,
2013-08-22 23:15:00,70.4,67.7,29.76,WSW,250,0.0,2.0,91,0.00,,,-99.99,VWS V12.06,2013-08-23 03:15:00,
2013-08-22 23:30:00,70.4,67.7,29.76,NNE,31,0.0,2.0,91,0.00,,,-99.99,VWS V12.06,2013-08-23 03:30:00,
2013-08-22 23:45:00,70.6,67.8,29.77,NNE,20,0.0,2.0,91,0.00,,,-99.99,VWS V12.06,2013-08-23 03:45:00,